createdAt,value
2023-05-01T00:01:50.013Z,101354.31
2023-05-01T00:05:30.919Z,101354.05
2023-05-01T00:08:49.354Z,101351.88
2023-05-01T00:12:30.946Z,101354.56
2023-05-01T00:16:17.115Z,101354.44
2023-05-01T00:19:42.459Z,101351.38
2023-05-01T00:23:20.948Z,101352.30
2023-05-01T00:27:01.320Z,101358.96
2023-05-01T00:30:53.512Z,101361.15
2023-05-01T00:34:14.255Z,101369.73
2023-05-01T00:37:52.435Z,101371.17
2023-05-01T00:41:30.117Z,101371.21
2023-05-01T00:45:16.406Z,101370.58
2023-05-01T00:48:44.588Z,101370.98
2023-05-01T00:52:30.186Z,101374.00
2023-05-01T00:56:16.858Z,101379.59
2023-05-01T00:59:37.254Z,101374.95
2023-05-01T01:03:15.263Z,101375.15
2023-05-01T01:06:57.496Z,101376.77
2023-05-01T01:10:53.041Z,101380.95
2023-05-01T01:14:12.328Z,101382.38
2023-05-01T01:18:08.135Z,101382.93
2023-05-01T01:21:27.793Z,101381.21
2023-05-01T01:25:27.733Z,101387.09
2023-05-01T01:29:30.154Z,101385.73
2023-05-01T01:32:28.264Z,101389.38
2023-05-01T01:36:17.236Z,101384.57
2023-05-01T01:39:54.609Z,101381.48
2023-05-01T01:43:28.878Z,101385.11
2023-05-01T01:47:09.842Z,101385.80
2023-05-01T01:50:45.497Z,101388.25
2023-05-01T01:54:51.934Z,101387.91
2023-05-01T01:58:00.942Z,101393.29
2023-05-01T02:01:52.438Z,101389.48
2023-05-01T02:05:16.681Z,101388.61
2023-05-01T02:09:20.975Z,101392.45
2023-05-01T02:12:57.520Z,101390.55
2023-05-01T02:16:18.544Z,101392.80
2023-05-01T02:20:12.688Z,101397.30
2023-05-01T02:23:42.537Z,101394.66
2023-05-01T02:27:15.279Z,101397.13
2023-05-01T02:31:04.649Z,101400.59
2023-05-01T02:34:37.185Z,101397.14
2023-05-01T02:38:01.780Z,101395.42
2023-05-01T02:41:47.565Z,101392.48
2023-05-01T02:45:33.247Z,101392.82
2023-05-01T02:49:10.511Z,101392.48
2023-05-01T02:52:48.669Z,101394.90
2023-05-01T02:56:26.885Z,101391.63
2023-05-01T03:00:03.457Z,101394.38
2023-05-01T03:03:40.208Z,101399.71
2023-05-01T03:07:51.622Z,101401.79
2023-05-01T03:11:02.653Z,101402.82
2023-05-01T03:14:38.442Z,101399.55
2023-05-01T03:18:31.168Z,101398.69
2023-05-01T03:22:11.376Z,101394.38
2023-05-01T03:25:42.066Z,101392.46
2023-05-01T03:29:24.259Z,101397.46
2023-05-01T03:32:55.535Z,101397.11
2023-05-01T03:36:35.167Z,101395.92
2023-05-01T03:40:26.370Z,101392.30
2023-05-01T03:44:07.526Z,101391.77
2023-05-01T03:47:25.142Z,101389.36
2023-05-01T03:51:01.900Z,101385.58
2023-05-01T03:55:01.913Z,101388.52
2023-05-01T03:58:24.757Z,101384.36
2023-05-01T04:02:01.592Z,101381.67
2023-05-01T04:05:47.081Z,101387.09
2023-05-01T04:10:00.140Z,101384.33
2023-05-01T04:13:27.337Z,101388.29
2023-05-01T04:17:15.180Z,101381.36
2023-05-01T04:20:25.882Z,101386.15
2023-05-01T04:24:01.588Z,101388.20
2023-05-01T04:27:46.534Z,101387.29
2023-05-01T04:31:22.501Z,101385.52
2023-05-01T04:35:09.113Z,101382.89
2023-05-01T04:38:48.576Z,101383.01
2023-05-01T04:42:39.973Z,101377.05
2023-05-01T04:46:17.349Z,101377.11
2023-05-01T04:49:41.937Z,101373.67
2023-05-01T04:53:26.078Z,101373.44
2023-05-01T04:57:03.417Z,101375.59
2023-05-01T05:00:49.638Z,101378.30
2023-05-01T05:04:09.407Z,101381.95
2023-05-01T05:07:50.484Z,101376.93
2023-05-01T05:11:24.646Z,101369.11
2023-05-01T05:15:02.266Z,101374.02
2023-05-01T05:19:04.815Z,101371.97
2023-05-01T05:22:16.639Z,101369.48
2023-05-01T05:26:40.909Z,101369.14
2023-05-01T05:30:22.368Z,101373.18
2023-05-01T05:33:49.584Z,101366.88
2023-05-01T05:37:33.041Z,101369.14
2023-05-01T05:40:55.595Z,101366.42
2023-05-01T05:44:36.106Z,101373.61
2023-05-01T05:48:27.244Z,101373.66
2023-05-01T05:51:49.246Z,101370.91
2023-05-01T05:55:25.916Z,101369.75
2023-05-01T05:59:07.498Z,101366.61
2023-05-01T06:02:49.225Z,101366.14
2023-05-01T06:06:19.181Z,101368.18
2023-05-01T06:10:01.684Z,101367.94
2023-05-01T06:13:50.548Z,101367.27
2023-05-01T06:17:15.984Z,101369.10
2023-05-01T06:20:49.900Z,101362.43
2023-05-01T06:24:39.839Z,101366.02
2023-05-01T06:28:05.502Z,101355.87
2023-05-01T06:32:00.196Z,101348.77
2023-05-01T06:35:47.788Z,101350.95
2023-05-01T06:39:02.561Z,101343.00
2023-05-01T06:42:46.201Z,101342.23
2023-05-01T06:46:17.377Z,101337.54
2023-05-01T06:49:51.433Z,101338.86
2023-05-01T06:53:27.542Z,101330.17
2023-05-01T06:57:20.392Z,101333.00
2023-05-01T07:00:48.026Z,101332.40
2023-05-01T07:04:47.855Z,101325.32
2023-05-01T07:08:31.553Z,101324.83
2023-05-01T07:11:58.236Z,101320.15
2023-05-01T07:15:42.874Z,101320.50
2023-05-01T07:19:04.193Z,101317.38
2023-05-01T07:22:58.188Z,101316.36
2023-05-01T07:26:20.136Z,101315.44
2023-05-01T07:30:14.855Z,101312.10
2023-05-01T07:33:34.763Z,101315.00
2023-05-01T07:37:29.131Z,101315.10
2023-05-01T07:41:05.274Z,101313.21
2023-05-01T07:44:27.775Z,101310.64
2023-05-01T07:48:26.283Z,101313.84
2023-05-01T07:51:53.228Z,101313.66
2023-05-01T07:55:26.606Z,101313.45
2023-05-01T07:59:08.684Z,101316.27
2023-05-01T08:02:37.930Z,101316.73
2023-05-01T08:06:12.309Z,101315.79
2023-05-01T08:09:59.979Z,101319.98
2023-05-01T08:13:36.022Z,101319.73
2023-05-01T08:17:21.464Z,101321.68
2023-05-01T08:20:58.907Z,101320.30
2023-05-01T08:24:44.354Z,101320.40
2023-05-01T08:28:30.881Z,101322.51
2023-05-01T08:31:51.900Z,101326.58
2023-05-01T08:35:33.069Z,101329.63
2023-05-01T08:39:12.035Z,101326.95
2023-05-01T08:42:43.278Z,101331.07
2023-05-01T08:46:34.624Z,101327.33
2023-05-01T08:50:14.069Z,101331.61
2023-05-01T08:54:02.687Z,101328.41
2023-05-01T08:57:37.610Z,101323.67
2023-05-01T09:01:01.387Z,101324.74
2023-05-01T09:04:38.495Z,101325.40
2023-05-01T09:08:14.804Z,101327.81
2023-05-01T09:11:50.473Z,101325.45
2023-05-01T09:15:33.242Z,101322.47
2023-05-01T09:19:35.068Z,101314.57
2023-05-01T09:23:03.920Z,101315.13
2023-05-01T09:27:01.078Z,101314.14
2023-05-01T09:30:12.288Z,101312.05
2023-05-01T09:33:59.694Z,101308.05
2023-05-01T09:37:52.785Z,101302.08
2023-05-01T09:41:12.860Z,101297.60
2023-05-01T09:45:13.277Z,101288.24
2023-05-01T09:48:55.116Z,101286.67
2023-05-01T09:52:16.888Z,101285.69
2023-05-01T09:56:01.660Z,101282.38
2023-05-01T09:59:35.752Z,101273.48
2023-05-01T10:03:16.787Z,101279.98
2023-05-01T10:06:38.209Z,101273.11
2023-05-01T10:10:24.558Z,101269.65
2023-05-01T10:14:10.254Z,101261.39
2023-05-01T10:17:47.566Z,101261.17
2023-05-01T10:21:17.205Z,101262.66
2023-05-01T10:24:46.257Z,101252.30
2023-05-01T10:28:41.238Z,101249.27
2023-05-01T10:32:00.749Z,101247.15
2023-05-01T10:35:38.960Z,101235.34
2023-05-01T10:39:34.428Z,101227.02
2023-05-01T10:43:19.665Z,101229.92
2023-05-01T10:47:03.413Z,101226.65
2023-05-01T10:51:12.056Z,101227.80
2023-05-01T10:55:37.112Z,101227.73
2023-05-01T10:58:59.424Z,101221.77
2023-05-01T11:02:26.602Z,101220.58
2023-05-01T11:06:14.791Z,101214.08
2023-05-01T11:10:28.659Z,101211.23
2023-05-01T11:13:58.510Z,101203.04
2023-05-01T11:17:49.572Z,101200.77
2023-05-01T11:21:08.937Z,101201.66
2023-05-01T11:24:45.524Z,101190.74
2023-05-01T11:28:09.759Z,101188.66
2023-05-01T11:32:04.033Z,101183.11
2023-05-01T11:36:01.110Z,101181.73
2023-05-01T11:39:01.132Z,101180.13
2023-05-01T11:43:05.495Z,101164.75
2023-05-01T11:46:28.627Z,101163.45
2023-05-01T11:50:35.138Z,101157.07
2023-05-01T11:54:15.117Z,101153.50
2023-05-01T11:57:27.720Z,101154.98
2023-05-01T12:01:36.139Z,101150.17
2023-05-01T12:05:17.962Z,101148.98
2023-05-01T12:08:49.737Z,101144.97
2023-05-01T12:12:22.666Z,101142.52
2023-05-01T12:15:53.944Z,101138.68
2023-05-01T12:19:49.161Z,101139.21
2023-05-01T12:23:37.016Z,101135.61
2023-05-01T12:26:36.537Z,101129.16
2023-05-01T12:30:25.289Z,101121.64
2023-05-01T12:33:58.447Z,101122.19
2023-05-01T12:38:03.627Z,101112.94
2023-05-01T12:41:39.213Z,101109.83
2023-05-01T12:45:09.212Z,101109.64
2023-05-01T12:48:35.547Z,101101.39
2023-05-01T12:52:35.540Z,101101.39
2023-05-01T12:56:23.158Z,101090.20
2023-05-01T13:00:01.141Z,101084.00
2023-05-01T13:03:27.874Z,101084.90
2023-05-01T13:07:14.151Z,101079.27
2023-05-01T13:10:44.782Z,101075.56
2023-05-01T13:14:23.870Z,101071.09
2023-05-01T13:17:44.622Z,101067.38
2023-05-01T13:21:47.741Z,101059.73
2023-05-01T13:25:19.964Z,101054.90
2023-05-01T13:28:38.563Z,101051.95
2023-05-01T13:32:42.003Z,101047.25
2023-05-01T13:36:03.054Z,101043.20
2023-05-01T13:39:38.861Z,101039.61
2023-05-01T13:43:35.493Z,101032.26
2023-05-01T13:46:53.209Z,101032.02
2023-05-01T13:50:54.865Z,101036.73
2023-05-01T13:54:26.217Z,101029.64
2023-05-01T13:58:08.654Z,101025.45
2023-05-01T14:01:31.649Z,101024.73
2023-05-01T14:05:11.826Z,101022.95
2023-05-01T14:09:05.049Z,101015.02
2023-05-01T14:12:27.817Z,101009.82
2023-05-01T14:16:23.668Z,101007.30
2023-05-01T14:19:54.851Z,101006.98
2023-05-01T14:23:25.911Z,100997.95
2023-05-01T14:27:26.668Z,100996.69
2023-05-01T14:30:49.724Z,100988.49
2023-05-01T14:34:53.038Z,100988.86
2023-05-01T14:38:11.450Z,100988.59
2023-05-01T14:41:43.525Z,100985.29
2023-05-01T14:45:41.737Z,100986.89
2023-05-01T14:49:05.031Z,100977.83
2023-05-01T14:52:32.611Z,100975.64
2023-05-01T14:56:32.252Z,100972.08
2023-05-01T15:00:15.957Z,100972.86
2023-05-01T15:03:43.953Z,100970.39
2023-05-01T15:07:35.531Z,100973.02
2023-05-01T15:11:03.254Z,100968.45
2023-05-01T15:14:29.490Z,100968.48
2023-05-01T15:18:30.760Z,100967.24
2023-05-01T15:21:41.434Z,100964.73
2023-05-01T15:25:27.179Z,100958.52
2023-05-01T15:29:23.971Z,100955.95
2023-05-01T15:32:51.899Z,100955.41
2023-05-01T15:36:12.380Z,100951.70
2023-05-01T15:40:10.310Z,100940.79
2023-05-01T15:43:45.588Z,100935.48
2023-05-01T15:47:22.230Z,100931.15
2023-05-01T15:50:43.274Z,100926.91
2023-05-01T15:54:21.707Z,100922.05
2023-05-01T15:57:58.728Z,100913.31
2023-05-01T16:01:54.916Z,100907.83
2023-05-01T16:05:29.121Z,100913.11
2023-05-01T16:08:52.098Z,100915.69
2023-05-01T16:12:30.293Z,100919.74
2023-05-01T16:16:23.801Z,100918.09
2023-05-01T16:19:46.652Z,100907.03
2023-05-01T16:23:42.967Z,100905.68
2023-05-01T16:27:27.349Z,100904.77
2023-05-01T16:30:52.941Z,100904.98
2023-05-01T16:34:21.840Z,100913.50
2023-05-01T16:38:09.452Z,100912.31
2023-05-01T16:41:31.269Z,100905.56
2023-05-01T16:45:23.907Z,100905.05
2023-05-01T16:48:50.264Z,100897.49
2023-05-01T16:52:41.427Z,100886.67
2023-05-01T16:56:28.986Z,100889.34
2023-05-01T16:59:39.800Z,100887.16
2023-05-01T17:03:36.278Z,100881.93
2023-05-01T17:06:53.553Z,100883.27
2023-05-01T17:10:41.852Z,100886.48
2023-05-01T17:14:16.574Z,100886.55
2023-05-01T17:18:10.790Z,100889.77
2023-05-01T17:21:50.101Z,100887.96
2023-05-01T17:25:19.335Z,100889.11
2023-05-01T17:28:47.124Z,100888.95
2023-05-01T17:32:40.773Z,100887.09
2023-05-01T17:36:04.037Z,100892.91
2023-05-01T17:39:41.164Z,100891.77
2023-05-01T17:43:35.599Z,100889.02
2023-05-01T17:47:05.507Z,100888.77
2023-05-01T17:50:43.561Z,100887.03
2023-05-01T17:54:31.536Z,100881.94
2023-05-01T17:58:03.418Z,100886.62
2023-05-01T18:01:53.178Z,100890.70
2023-05-01T18:05:19.871Z,100899.81
2023-05-01T18:09:07.017Z,100902.91
2023-05-01T18:12:46.451Z,100903.54
2023-05-01T18:16:24.050Z,100903.89
2023-05-01T18:19:33.104Z,100899.77
2023-05-01T18:23:20.287Z,100896.05
2023-05-01T18:26:55.750Z,100900.06
2023-05-01T18:30:33.737Z,100903.81
2023-05-01T18:34:27.861Z,100905.82
2023-05-01T18:37:48.742Z,100905.11
2023-05-01T18:41:30.101Z,100902.10
2023-05-01T18:45:20.983Z,100904.08
2023-05-01T18:48:59.473Z,100903.77
2023-05-01T18:52:37.525Z,100904.06
2023-05-01T18:55:57.290Z,100905.91
2023-05-01T18:59:35.886Z,100905.70
2023-05-01T19:03:24.155Z,100902.52
2023-05-01T19:06:50.938Z,100903.84
2023-05-01T19:10:38.366Z,100906.61
2023-05-01T19:14:05.735Z,100902.14
2023-05-01T19:18:01.875Z,100903.92
2023-05-01T19:21:38.079Z,100902.35
2023-05-01T19:25:00.637Z,100892.67
2023-05-01T19:28:54.423Z,100887.13
2023-05-01T19:32:14.523Z,100876.77
2023-05-01T19:36:10.117Z,100875.30
2023-05-01T19:39:30.284Z,100879.97
2023-05-01T19:43:24.414Z,100876.54
2023-05-01T19:47:02.074Z,100880.23
2023-05-01T19:50:23.008Z,100878.67
2023-05-01T19:54:15.784Z,100873.29
2023-05-01T19:57:53.322Z,100870.48
2023-05-01T20:01:16.365Z,100864.52
2023-05-01T20:05:27.232Z,100863.18
2023-05-01T20:08:48.612Z,100854.95
2023-05-01T20:12:17.491Z,100852.86
2023-05-01T20:15:57.018Z,100850.61
2023-05-01T20:19:24.946Z,100854.79
2023-05-01T20:23:22.749Z,100858.83
2023-05-01T20:26:53.994Z,100854.94
2023-05-01T20:30:16.918Z,100854.41
2023-05-01T20:34:22.798Z,100852.89
2023-05-01T20:37:43.014Z,100852.19
2023-05-01T20:41:19.016Z,100857.52
2023-05-01T20:45:11.505Z,100865.33
2023-05-01T20:48:32.861Z,100857.80
2023-05-01T20:52:27.529Z,100859.07
2023-05-01T20:56:05.521Z,100856.30
2023-05-01T20:59:35.626Z,100859.85
2023-05-01T21:03:18.157Z,100865.84
2023-05-01T21:06:41.866Z,100867.86
2023-05-01T21:10:36.488Z,100870.62
2023-05-01T21:13:56.573Z,100866.55
2023-05-01T21:17:36.053Z,100865.67
2023-05-01T21:21:11.879Z,100864.59
2023-05-01T21:25:00.906Z,100866.31
2023-05-01T21:28:46.389Z,100867.69
2023-05-01T21:32:05.483Z,100866.02
2023-05-01T21:35:57.498Z,100863.84
2023-05-01T21:39:24.451Z,100863.58
2023-05-01T21:43:25.077Z,100862.17
2023-05-01T21:46:46.016Z,100855.38
2023-05-01T21:50:23.765Z,100850.86
2023-05-01T21:53:49.319Z,100852.96
2023-05-01T21:57:33.523Z,100855.96
2023-05-01T22:01:18.732Z,100857.47
2023-05-01T22:05:31.374Z,100863.19
2023-05-01T22:08:55.976Z,100858.05
2023-05-01T22:12:17.005Z,100858.05
2023-05-01T22:16:12.724Z,100854.28
2023-05-01T22:19:45.692Z,100849.95
2023-05-01T22:23:17.684Z,100848.30
2023-05-01T22:27:03.809Z,100850.16
2023-05-01T22:30:57.391Z,100845.93
2023-05-01T22:34:21.790Z,100845.67
2023-05-01T22:37:53.875Z,100847.72
2023-05-01T22:41:39.846Z,100845.77
2023-05-01T22:45:16.775Z,100841.73
2023-05-01T22:48:57.693Z,100840.83
2023-05-01T22:52:48.580Z,100828.76
2023-05-01T22:56:26.802Z,100831.69
2023-05-01T22:59:48.380Z,100827.50
2023-05-01T23:03:26.426Z,100828.89
2023-05-01T23:07:21.549Z,100827.92
2023-05-01T23:10:43.079Z,100828.52
2023-05-01T23:14:46.416Z,100826.83
2023-05-01T23:18:24.769Z,100819.33
2023-05-01T23:21:41.833Z,100822.57
2023-05-01T23:25:28.400Z,100816.20
2023-05-01T23:29:05.652Z,100818.15
2023-05-01T23:32:59.246Z,100813.48
2023-05-01T23:36:31.263Z,100812.80
2023-05-01T23:39:58.687Z,100818.05
2023-05-01T23:43:58.556Z,100812.85
2023-05-01T23:47:41.889Z,100811.37
2023-05-01T23:51:17.017Z,100812.89
2023-05-01T23:54:55.028Z,100810.69
2023-05-01T23:58:13.624Z,100805.79
